sensor_id;sensor_type;location;lat;lon;timestamp;P1;durP1;ratioP1;P2;durP2;ratioP2
52458;SDS011;38372;52.902;6.024;2022-12-18T00:01:03;68.28;;;25.98;;
52458;SDS011;38372;52.902;6.024;2022-12-18T00:03:34;68.28;;;26.27;;
52458;SDS011;38372;52.902;6.024;2022-12-18T00:06:01;105.07;;;38.78;;
52458;SDS011;38372;52.902;6.024;2022-12-18T00:08:27;107.68;;;38.13;;
52458;SDS011;38372;52.902;6.024;2022-12-18T00:10:53;80.05;;;30.98;;
52458;SDS011;38372;52.902;6.024;2022-12-18T00:13:20;109.50;;;38.67;;
52458;SDS011;38372;52.902;6.024;2022-12-18T00:15:46;118.05;;;40.95;;
52458;SDS011;38372;52.902;6.024;2022-12-18T00:18:12;113.28;;;40.78;;
52458;SDS011;38372;52.902;6.024;2022-12-18T00:20:38;87.60;;;30.65;;
52458;SDS011;38372;52.902;6.024;2022-12-18T00:23:05;84.60;;;31.55;;
52458;SDS011;38372;52.902;6.024;2022-12-18T00:25:34;96.03;;;32.83;;
52458;SDS011;38372;52.902;6.024;2022-12-18T00:28:02;65.00;;;24.75;;
52458;SDS011;38372;52.902;6.024;2022-12-18T00:30:28;78.40;;;30.35;;
52458;SDS011;38372;52.902;6.024;2022-12-18T00:32:54;81.97;;;31.88;;
52458;SDS011;38372;52.902;6.024;2022-12-18T00:35:20;109.18;;;37.95;;
52458;SDS011;38372;52.902;6.024;2022-12-18T00:37:46;103.40;;;35.35;;
52458;SDS011;38372;52.902;6.024;2022-12-18T00:40:12;51.13;;;20.67;;
52458;SDS011;38372;52.902;6.024;2022-12-18T00:42:38;98.93;;;32.72;;
52458;SDS011;38372;52.902;6.024;2022-12-18T00:45:25;62.70;;;25.30;;
52458;SDS011;38372;52.902;6.024;2022-12-18T00:47:53;95.05;;;33.47;;
52458;SDS011;38372;52.902;6.024;2022-12-18T00:50:19;78.03;;;27.42;;
52458;SDS011;38372;52.902;6.024;2022-12-18T00:52:46;69.82;;;24.67;;
52458;SDS011;38372;52.902;6.024;2022-12-18T00:55:12;100.00;;;31.02;;
52458;SDS011;38372;52.902;6.024;2022-12-18T00:57:38;86.22;;;30.90;;
52458;SDS011;38372;52.902;6.024;2022-12-18T01:00:05;99.60;;;36.75;;
52458;SDS011;38372;52.902;6.024;2022-12-18T01:02:32;87.78;;;32.42;;
52458;SDS011;38372;52.902;6.024;2022-12-18T01:04:58;75.38;;;28.08;;
52458;SDS011;38372;52.902;6.024;2022-12-18T01:07:24;104.22;;;36.83;;
52458;SDS011;38372;52.902;6.024;2022-12-18T01:09:50;90.88;;;31.90;;
52458;SDS011;38372;52.902;6.024;2022-12-18T01:12:16;82.32;;;30.10;;
52458;SDS011;38372;52.902;6.024;2022-12-18T01:14:41;87.20;;;31.88;;
52458;SDS011;38372;52.902;6.024;2022-12-18T01:17:07;84.57;;;28.92;;
52458;SDS011;38372;52.902;6.024;2022-12-18T01:19:33;67.50;;;24.38;;
52458;SDS011;38372;52.902;6.024;2022-12-18T01:21:59;89.65;;;32.85;;
52458;SDS011;38372;52.902;6.024;2022-12-18T01:24:25;79.47;;;28.73;;
52458;SDS011;38372;52.902;6.024;2022-12-18T01:26:51;84.57;;;32.80;;
52458;SDS011;38372;52.902;6.024;2022-12-18T01:29:16;53.85;;;20.73;;
52458;SDS011;38372;52.902;6.024;2022-12-18T01:31:42;94.80;;;33.50;;
52458;SDS011;38372;52.902;6.024;2022-12-18T01:34:08;94.28;;;33.28;;
52458;SDS011;38372;52.902;6.024;2022-12-18T01:36:35;73.85;;;28.85;;
52458;SDS011;38372;52.902;6.024;2022-12-18T01:39:04;92.75;;;31.25;;
52458;SDS011;38372;52.902;6.024;2022-12-18T01:41:32;95.35;;;33.17;;
52458;SDS011;38372;52.902;6.024;2022-12-18T01:49:55;105.43;;;33.58;;
52458;SDS011;38372;52.902;6.024;2022-12-18T01:52:24;80.40;;;30.30;;
52458;SDS011;38372;52.902;6.024;2022-12-18T01:54:53;98.18;;;37.60;;
52458;SDS011;38372;52.902;6.024;2022-12-18T01:57:20;86.32;;;29.98;;
52458;SDS011;38372;52.902;6.024;2022-12-18T01:59:49;90.18;;;31.08;;
52458;SDS011;38372;52.902;6.024;2022-12-18T02:02:17;88.13;;;32.38;;
52458;SDS011;38372;52.902;6.024;2022-12-18T02:04:45;100.93;;;36.10;;
52458;SDS011;38372;52.902;6.024;2022-12-18T02:10:12;95.72;;;33.78;;
52458;SDS011;38372;52.902;6.024;2022-12-18T02:13:02;121.32;;;39.70;;
52458;SDS011;38372;52.902;6.024;2022-12-18T02:18:08;124.15;;;38.28;;
52458;SDS011;38372;52.902;6.024;2022-12-18T02:28:44;121.72;;;40.28;;
52458;SDS011;38372;52.902;6.024;2022-12-18T02:31:18;105.25;;;37.28;;
52458;SDS011;38372;52.902;6.024;2022-12-18T02:33:53;116.45;;;39.67;;
52458;SDS011;38372;52.902;6.024;2022-12-18T02:36:25;89.82;;;32.35;;
52458;SDS011;38372;52.902;6.024;2022-12-18T02:38:53;104.32;;;39.70;;
52458;SDS011;38372;52.902;6.024;2022-12-18T02:41:39;97.78;;;33.38;;
52458;SDS011;38372;52.902;6.024;2022-12-18T02:44:09;91.40;;;34.58;;
52458;SDS011;38372;52.902;6.024;2022-12-18T02:46:44;109.68;;;41.53;;
52458;SDS011;38372;52.902;6.024;2022-12-18T02:49:34;96.65;;;36.25;;
52458;SDS011;38372;52.902;6.024;2022-12-18T02:52:05;72.00;;;26.55;;
52458;SDS011;38372;52.902;6.024;2022-12-18T02:54:42;68.78;;;28.83;;
52458;SDS011;38372;52.902;6.024;2022-12-18T02:57:30;83.68;;;29.15;;
52458;SDS011;38372;52.902;6.024;2022-12-18T03:03:01;98.38;;;37.53;;
52458;SDS011;38372;52.902;6.024;2022-12-18T03:05:52;98.82;;;38.42;;
52458;SDS011;38372;52.902;6.024;2022-12-18T03:08:23;90.65;;;32.33;;
52458;SDS011;38372;52.902;6.024;2022-12-18T03:10:53;104.50;;;38.38;;
52458;SDS011;38372;52.902;6.024;2022-12-18T03:16:05;96.35;;;35.88;;
52458;SDS011;38372;52.902;6.024;2022-12-18T03:18:38;100.55;;;36.67;;
52458;SDS011;38372;52.902;6.024;2022-12-18T03:21:10;88.50;;;35.13;;
52458;SDS011;38372;52.902;6.024;2022-12-18T03:23:43;89.30;;;34.15;;
52458;SDS011;38372;52.902;6.024;2022-12-18T03:26:14;93.22;;;37.67;;
52458;SDS011;38372;52.902;6.024;2022-12-18T03:28:46;89.10;;;36.50;;
52458;SDS011;38372;52.902;6.024;2022-12-18T03:31:16;97.35;;;37.40;;
52458;SDS011;38372;52.902;6.024;2022-12-18T03:33:52;90.53;;;33.92;;
52458;SDS011;38372;52.902;6.024;2022-12-18T03:36:19;88.47;;;34.63;;
52458;SDS011;38372;52.902;6.024;2022-12-18T03:38:46;78.10;;;29.30;;
52458;SDS011;38372;52.902;6.024;2022-12-18T03:41:17;71.35;;;28.25;;
52458;SDS011;38372;52.902;6.024;2022-12-18T03:43:51;87.45;;;35.28;;
52458;SDS011;38372;52.902;6.024;2022-12-18T03:49:14;73.60;;;29.88;;
52458;SDS011;38372;52.902;6.024;2022-12-18T03:54:28;85.47;;;34.47;;
52458;SDS011;38372;52.902;6.024;2022-12-18T03:56:59;83.03;;;29.48;;
52458;SDS011;38372;52.902;6.024;2022-12-18T03:59:30;67.40;;;29.83;;
52458;SDS011;38372;52.902;6.024;2022-12-18T04:01:57;66.88;;;28.23;;
52458;SDS011;38372;52.902;6.024;2022-12-18T04:04:26;77.95;;;32.20;;
52458;SDS011;38372;52.902;6.024;2022-12-18T04:06:54;71.32;;;30.02;;
52458;SDS011;38372;52.902;6.024;2022-12-18T04:09:20;65.70;;;28.92;;
52458;SDS011;38372;52.902;6.024;2022-12-18T04:11:47;72.20;;;30.90;;
52458;SDS011;38372;52.902;6.024;2022-12-18T04:14:13;63.28;;;28.83;;
52458;SDS011;38372;52.902;6.024;2022-12-18T04:16:39;71.93;;;30.95;;
52458;SDS011;38372;52.902;6.024;2022-12-18T04:19:05;66.65;;;28.02;;
52458;SDS011;38372;52.902;6.024;2022-12-18T04:21:31;65.15;;;27.77;;
52458;SDS011;38372;52.902;6.024;2022-12-18T04:23:57;66.70;;;28.23;;
52458;SDS011;38372;52.902;6.024;2022-12-18T04:26:22;62.67;;;27.17;;
52458;SDS011;38372;52.902;6.024;2022-12-18T04:28:48;71.78;;;29.40;;
52458;SDS011;38372;52.902;6.024;2022-12-18T04:31:14;67.15;;;27.15;;
52458;SDS011;38372;52.902;6.024;2022-12-18T04:33:40;72.93;;;31.33;;
52458;SDS011;38372;52.902;6.024;2022-12-18T04:36:06;65.90;;;28.10;;
52458;SDS011;38372;52.902;6.024;2022-12-18T04:38:32;68.93;;;28.63;;
52458;SDS011;38372;52.902;6.024;2022-12-18T04:40:58;60.92;;;27.38;;
52458;SDS011;38372;52.902;6.024;2022-12-18T04:43:24;69.43;;;28.65;;
52458;SDS011;38372;52.902;6.024;2022-12-18T04:45:49;68.15;;;27.90;;
52458;SDS011;38372;52.902;6.024;2022-12-18T04:48:15;61.03;;;25.20;;
52458;SDS011;38372;52.902;6.024;2022-12-18T04:50:41;61.83;;;27.58;;
52458;SDS011;38372;52.902;6.024;2022-12-18T04:53:07;62.97;;;26.80;;
52458;SDS011;38372;52.902;6.024;2022-12-18T04:55:32;61.13;;;26.50;;
52458;SDS011;38372;52.902;6.024;2022-12-18T04:57:58;61.88;;;28.25;;
52458;SDS011;38372;52.902;6.024;2022-12-18T05:00:24;62.03;;;27.83;;
52458;SDS011;38372;52.902;6.024;2022-12-18T05:02:50;58.30;;;26.23;;
52458;SDS011;38372;52.902;6.024;2022-12-18T05:05:16;62.10;;;26.08;;
52458;SDS011;38372;52.902;6.024;2022-12-18T05:07:41;57.17;;;25.40;;
52458;SDS011;38372;52.902;6.024;2022-12-18T05:10:07;61.35;;;26.08;;
52458;SDS011;38372;52.902;6.024;2022-12-18T05:12:33;57.42;;;26.55;;
52458;SDS011;38372;52.902;6.024;2022-12-18T05:15:19;55.30;;;22.95;;
52458;SDS011;38372;52.902;6.024;2022-12-18T05:17:45;67.93;;;26.70;;
52458;SDS011;38372;52.902;6.024;2022-12-18T05:20:11;57.22;;;24.00;;
52458;SDS011;38372;52.902;6.024;2022-12-18T05:22:36;51.80;;;23.33;;
52458;SDS011;38372;52.902;6.024;2022-12-18T05:25:02;50.38;;;23.05;;
52458;SDS011;38372;52.902;6.024;2022-12-18T05:27:28;49.38;;;23.25;;
52458;SDS011;38372;52.902;6.024;2022-12-18T05:29:54;49.13;;;21.13;;
52458;SDS011;38372;52.902;6.024;2022-12-18T05:32:20;51.47;;;22.83;;
52458;SDS011;38372;52.902;6.024;2022-12-18T05:34:45;50.60;;;22.67;;
52458;SDS011;38372;52.902;6.024;2022-12-18T05:37:11;47.80;;;22.88;;
52458;SDS011;38372;52.902;6.024;2022-12-18T05:39:38;48.38;;;21.45;;
52458;SDS011;38372;52.902;6.024;2022-12-18T05:42:03;51.78;;;20.92;;
52458;SDS011;38372;52.902;6.024;2022-12-18T05:44:29;46.13;;;22.10;;
52458;SDS011;38372;52.902;6.024;2022-12-18T05:46:55;47.35;;;22.20;;
52458;SDS011;38372;52.902;6.024;2022-12-18T05:49:21;45.28;;;23.38;;
52458;SDS011;38372;52.902;6.024;2022-12-18T05:51:46;42.00;;;19.73;;
52458;SDS011;38372;52.902;6.024;2022-12-18T05:54:12;59.63;;;22.08;;
52458;SDS011;38372;52.902;6.024;2022-12-18T05:56:38;50.65;;;21.02;;
52458;SDS011;38372;52.902;6.024;2022-12-18T05:59:04;49.03;;;20.40;;
52458;SDS011;38372;52.902;6.024;2022-12-18T06:01:29;50.40;;;23.35;;
52458;SDS011;38372;52.902;6.024;2022-12-18T06:03:55;47.67;;;21.25;;
52458;SDS011;38372;52.902;6.024;2022-12-18T06:06:25;48.72;;;21.45;;
52458;SDS011;38372;52.902;6.024;2022-12-18T06:08:52;43.90;;;21.95;;
52458;SDS011;38372;52.902;6.024;2022-12-18T06:11:19;48.75;;;21.17;;
52458;SDS011;38372;52.902;6.024;2022-12-18T06:13:51;48.38;;;21.15;;
52458;SDS011;38372;52.902;6.024;2022-12-18T06:16:18;55.88;;;22.88;;
52458;SDS011;38372;52.902;6.024;2022-12-18T06:18:44;54.85;;;22.85;;
52458;SDS011;38372;52.902;6.024;2022-12-18T06:21:11;46.10;;;20.48;;
52458;SDS011;38372;52.902;6.024;2022-12-18T06:23:37;49.85;;;20.50;;
52458;SDS011;38372;52.902;6.024;2022-12-18T06:26:07;45.20;;;20.75;;
52458;SDS011;38372;52.902;6.024;2022-12-18T06:28:35;50.88;;;23.95;;
52458;SDS011;38372;52.902;6.024;2022-12-18T06:31:02;52.20;;;21.38;;
52458;SDS011;38372;52.902;6.024;2022-12-18T06:33:29;43.53;;;19.60;;
52458;SDS011;38372;52.902;6.024;2022-12-18T06:35:59;49.00;;;23.38;;
52458;SDS011;38372;52.902;6.024;2022-12-18T06:38:26;44.00;;;21.67;;
52458;SDS011;38372;52.902;6.024;2022-12-18T06:40:52;41.70;;;19.83;;
52458;SDS011;38372;52.902;6.024;2022-12-18T06:43:18;46.25;;;21.10;;
52458;SDS011;38372;52.902;6.024;2022-12-18T06:45:44;43.63;;;21.30;;
52458;SDS011;38372;52.902;6.024;2022-12-18T06:48:11;44.08;;;20.13;;
52458;SDS011;38372;52.902;6.024;2022-12-18T06:50:37;42.25;;;19.33;;
52458;SDS011;38372;52.902;6.024;2022-12-18T06:53:06;43.10;;;18.93;;
52458;SDS011;38372;52.902;6.024;2022-12-18T06:55:32;44.78;;;19.13;;
52458;SDS011;38372;52.902;6.024;2022-12-18T06:57:58;40.65;;;19.98;;
52458;SDS011;38372;52.902;6.024;2022-12-18T07:00:24;41.20;;;19.10;;
52458;SDS011;38372;52.902;6.024;2022-12-18T07:02:49;43.00;;;19.42;;
52458;SDS011;38372;52.902;6.024;2022-12-18T07:05:15;41.03;;;18.85;;
52458;SDS011;38372;52.902;6.024;2022-12-18T07:07:41;34.80;;;16.50;;
52458;SDS011;38372;52.902;6.024;2022-12-18T07:10:07;36.75;;;17.40;;
52458;SDS011;38372;52.902;6.024;2022-12-18T07:12:33;42.92;;;17.70;;
52458;SDS011;38372;52.902;6.024;2022-12-18T07:14:59;41.92;;;19.17;;
52458;SDS011;38372;52.902;6.024;2022-12-18T07:17:25;38.03;;;18.70;;
52458;SDS011;38372;52.902;6.024;2022-12-18T07:19:50;39.45;;;17.63;;
52458;SDS011;38372;52.902;6.024;2022-12-18T07:22:16;41.10;;;18.10;;
52458;SDS011;38372;52.902;6.024;2022-12-18T07:24:42;36.78;;;17.33;;
52458;SDS011;38372;52.902;6.024;2022-12-18T07:27:08;39.30;;;19.23;;
52458;SDS011;38372;52.902;6.024;2022-12-18T07:29:33;36.63;;;16.45;;
52458;SDS011;38372;52.902;6.024;2022-12-18T07:31:59;39.28;;;17.80;;
52458;SDS011;38372;52.902;6.024;2022-12-18T07:34:25;42.53;;;20.73;;
52458;SDS011;38372;52.902;6.024;2022-12-18T07:36:51;36.40;;;19.33;;
52458;SDS011;38372;52.902;6.024;2022-12-18T07:39:17;34.40;;;17.13;;
52458;SDS011;38372;52.902;6.024;2022-12-18T07:41:42;33.80;;;16.80;;
52458;SDS011;38372;52.902;6.024;2022-12-18T07:44:11;33.35;;;15.80;;
52458;SDS011;38372;52.902;6.024;2022-12-18T07:46:37;36.53;;;16.92;;
52458;SDS011;38372;52.902;6.024;2022-12-18T07:49:03;35.47;;;17.98;;
52458;SDS011;38372;52.902;6.024;2022-12-18T07:51:29;32.17;;;18.17;;
52458;SDS011;38372;52.902;6.024;2022-12-18T07:53:56;34.45;;;17.63;;
52458;SDS011;38372;52.902;6.024;2022-12-18T07:56:22;36.17;;;17.15;;
52458;SDS011;38372;52.902;6.024;2022-12-18T07:58:47;27.48;;;14.50;;
52458;SDS011;38372;52.902;6.024;2022-12-18T08:01:13;34.03;;;15.13;;
52458;SDS011;38372;52.902;6.024;2022-12-18T08:03:39;35.13;;;16.98;;
52458;SDS011;38372;52.902;6.024;2022-12-18T08:06:06;32.40;;;16.85;;
52458;SDS011;38372;52.902;6.024;2022-12-18T08:08:34;39.17;;;18.42;;
52458;SDS011;38372;52.902;6.024;2022-12-18T08:11:00;29.17;;;15.65;;
52458;SDS011;38372;52.902;6.024;2022-12-18T08:13:26;37.30;;;16.48;;
52458;SDS011;38372;52.902;6.024;2022-12-18T08:16:11;29.73;;;15.15;;
52458;SDS011;38372;52.902;6.024;2022-12-18T08:18:37;31.30;;;15.80;;
52458;SDS011;38372;52.902;6.024;2022-12-18T08:21:13;36.78;;;17.95;;
52458;SDS011;38372;52.902;6.024;2022-12-18T08:23:41;34.10;;;18.15;;
52458;SDS011;38372;52.902;6.024;2022-12-18T08:26:07;38.13;;;17.02;;
52458;SDS011;38372;52.902;6.024;2022-12-18T08:28:33;33.88;;;16.73;;
52458;SDS011;38372;52.902;6.024;2022-12-18T08:31:00;31.30;;;16.15;;
52458;SDS011;38372;52.902;6.024;2022-12-18T08:33:25;33.15;;;15.82;;
52458;SDS011;38372;52.902;6.024;2022-12-18T08:35:52;37.22;;;17.45;;
52458;SDS011;38372;52.902;6.024;2022-12-18T08:38:18;30.10;;;15.52;;
52458;SDS011;38372;52.902;6.024;2022-12-18T08:40:43;29.73;;;15.25;;
52458;SDS011;38372;52.902;6.024;2022-12-18T08:43:10;27.45;;;15.15;;
52458;SDS011;38372;52.902;6.024;2022-12-18T08:45:55;30.88;;;15.10;;
52458;SDS011;38372;52.902;6.024;2022-12-18T08:48:20;29.83;;;15.35;;
52458;SDS011;38372;52.902;6.024;2022-12-18T08:50:56;25.08;;;12.00;;
52458;SDS011;38372;52.902;6.024;2022-12-18T08:53:23;28.52;;;14.80;;
52458;SDS011;38372;52.902;6.024;2022-12-18T08:55:49;33.08;;;16.02;;
52458;SDS011;38372;52.902;6.024;2022-12-18T08:58:15;26.75;;;14.88;;
52458;SDS011;38372;52.902;6.024;2022-12-18T09:00:40;27.63;;;13.50;;
52458;SDS011;38372;52.902;6.024;2022-12-18T09:03:13;25.23;;;13.85;;
52458;SDS011;38372;52.902;6.024;2022-12-18T09:05:42;24.40;;;13.43;;
52458;SDS011;38372;52.902;6.024;2022-12-18T09:08:09;25.42;;;13.65;;
52458;SDS011;38372;52.902;6.024;2022-12-18T09:10:40;25.75;;;14.60;;
52458;SDS011;38372;52.902;6.024;2022-12-18T09:13:08;25.13;;;13.88;;
52458;SDS011;38372;52.902;6.024;2022-12-18T09:15:40;24.67;;;13.63;;
52458;SDS011;38372;52.902;6.024;2022-12-18T09:18:13;25.02;;;12.93;;
52458;SDS011;38372;52.902;6.024;2022-12-18T09:20:41;26.77;;;14.05;;
52458;SDS011;38372;52.902;6.024;2022-12-18T09:23:07;21.95;;;12.48;;
52458;SDS011;38372;52.902;6.024;2022-12-18T09:25:34;25.30;;;12.63;;
52458;SDS011;38372;52.902;6.024;2022-12-18T09:28:19;24.33;;;13.77;;
52458;SDS011;38372;52.902;6.024;2022-12-18T09:30:45;23.30;;;12.95;;
52458;SDS011;38372;52.902;6.024;2022-12-18T09:33:13;22.05;;;12.75;;
52458;SDS011;38372;52.902;6.024;2022-12-18T09:35:40;25.73;;;13.10;;
52458;SDS011;38372;52.902;6.024;2022-12-18T09:38:08;19.75;;;11.90;;
52458;SDS011;38372;52.902;6.024;2022-12-18T09:40:42;22.00;;;12.52;;
52458;SDS011;38372;52.902;6.024;2022-12-18T09:43:20;17.58;;;11.50;;
52458;SDS011;38372;52.902;6.024;2022-12-18T09:46:03;21.00;;;11.63;;
52458;SDS011;38372;52.902;6.024;2022-12-18T09:48:34;20.73;;;12.48;;
52458;SDS011;38372;52.902;6.024;2022-12-18T09:51:05;20.65;;;11.95;;
52458;SDS011;38372;52.902;6.024;2022-12-18T09:53:37;18.83;;;11.95;;
52458;SDS011;38372;52.902;6.024;2022-12-18T09:56:05;20.60;;;11.45;;
52458;SDS011;38372;52.902;6.024;2022-12-18T10:01:14;18.90;;;10.68;;
52458;SDS011;38372;52.902;6.024;2022-12-18T10:03:45;22.35;;;12.20;;
52458;SDS011;38372;52.902;6.024;2022-12-18T10:08:50;17.88;;;11.57;;
52458;SDS011;38372;52.902;6.024;2022-12-18T10:17:12;19.45;;;12.25;;
52458;SDS011;38372;52.902;6.024;2022-12-18T10:26:07;20.15;;;11.63;;
52458;SDS011;38372;52.902;6.024;2022-12-18T10:28:35;20.33;;;11.27;;
52458;SDS011;38372;52.902;6.024;2022-12-18T10:31:22;19.40;;;11.85;;
52458;SDS011;38372;52.902;6.024;2022-12-18T10:33:49;18.40;;;11.95;;
52458;SDS011;38372;52.902;6.024;2022-12-18T10:36:15;19.58;;;11.35;;
52458;SDS011;38372;52.902;6.024;2022-12-18T10:38:41;19.73;;;10.75;;
52458;SDS011;38372;52.902;6.024;2022-12-18T10:46:48;19.40;;;10.60;;
52458;SDS011;38372;52.902;6.024;2022-12-18T10:49:19;18.90;;;10.02;;
52458;SDS011;38372;52.902;6.024;2022-12-18T10:52:05;16.17;;;9.68;;
52458;SDS011;38372;52.902;6.024;2022-12-18T10:54:45;16.10;;;9.68;;
52458;SDS011;38372;52.902;6.024;2022-12-18T11:02:46;16.55;;;8.88;;
52458;SDS011;38372;52.902;6.024;2022-12-18T11:08:02;18.90;;;9.95;;
52458;SDS011;38372;52.902;6.024;2022-12-18T11:13:17;14.57;;;8.05;;
52458;SDS011;38372;52.902;6.024;2022-12-18T11:15:46;13.88;;;8.35;;
52458;SDS011;38372;52.902;6.024;2022-12-18T11:18:32;13.23;;;8.05;;
52458;SDS011;38372;52.902;6.024;2022-12-18T11:21:06;15.05;;;8.48;;
52458;SDS011;38372;52.902;6.024;2022-12-18T11:23:34;13.48;;;8.27;;
52458;SDS011;38372;52.902;6.024;2022-12-18T11:26:03;12.52;;;8.13;;
52458;SDS011;38372;52.902;6.024;2022-12-18T11:33:43;15.40;;;9.07;;
52458;SDS011;38372;52.902;6.024;2022-12-18T11:36:36;13.40;;;7.65;;
52458;SDS011;38372;52.902;6.024;2022-12-18T11:39:18;14.27;;;7.90;;
52458;SDS011;38372;52.902;6.024;2022-12-18T11:41:47;14.23;;;7.85;;
52458;SDS011;38372;52.902;6.024;2022-12-18T11:44:48;10.25;;;5.93;;
52458;SDS011;38372;52.902;6.024;2022-12-18T11:50:11;14.80;;;8.27;;
52458;SDS011;38372;52.902;6.024;2022-12-18T11:52:54;14.25;;;7.80;;
52458;SDS011;38372;52.902;6.024;2022-12-18T12:00:27;12.55;;;8.32;;
52458;SDS011;38372;52.902;6.024;2022-12-18T12:08:34;14.05;;;8.18;;
52458;SDS011;38372;52.902;6.024;2022-12-18T12:14:07;15.88;;;8.57;;
52458;SDS011;38372;52.902;6.024;2022-12-18T12:17:03;13.10;;;7.55;;
52458;SDS011;38372;52.902;6.024;2022-12-18T12:20:18;13.88;;;8.15;;
52458;SDS011;38372;52.902;6.024;2022-12-18T12:22:38;16.88;;;8.82;;
52458;SDS011;38372;52.902;6.024;2022-12-18T12:39:07;11.93;;;7.15;;
52458;SDS011;38372;52.902;6.024;2022-12-18T12:41:37;12.35;;;7.50;;
52458;SDS011;38372;52.902;6.024;2022-12-18T12:44:27;12.98;;;7.53;;
52458;SDS011;38372;52.902;6.024;2022-12-18T12:46:57;10.32;;;6.63;;
52458;SDS011;38372;52.902;6.024;2022-12-18T12:49:29;12.10;;;6.82;;
52458;SDS011;38372;52.902;6.024;2022-12-18T12:52:05;10.37;;;5.87;;
52458;SDS011;38372;52.902;6.024;2022-12-18T12:54:36;11.77;;;7.32;;
52458;SDS011;38372;52.902;6.024;2022-12-18T13:07:50;11.30;;;7.50;;
52458;SDS011;38372;52.902;6.024;2022-12-18T13:10:32;12.23;;;7.47;;
52458;SDS011;38372;52.902;6.024;2022-12-18T13:13:02;12.45;;;6.72;;
52458;SDS011;38372;52.902;6.024;2022-12-18T13:18:24;12.88;;;8.10;;
52458;SDS011;38372;52.902;6.024;2022-12-18T13:25:54;12.15;;;6.78;;
52458;SDS011;38372;52.902;6.024;2022-12-18T13:33:40;14.00;;;6.68;;
52458;SDS011;38372;52.902;6.024;2022-12-18T13:39:08;12.43;;;6.63;;
52458;SDS011;38372;52.902;6.024;2022-12-18T13:41:43;11.57;;;6.75;;
52458;SDS011;38372;52.902;6.024;2022-12-18T13:44:24;11.23;;;6.50;;
52458;SDS011;38372;52.902;6.024;2022-12-18T13:46:55;10.23;;;6.57;;
52458;SDS011;38372;52.902;6.024;2022-12-18T13:49:25;10.45;;;5.90;;
52458;SDS011;38372;52.902;6.024;2022-12-18T13:52:19;9.20;;;6.75;;
52458;SDS011;38372;52.902;6.024;2022-12-18T13:54:51;11.23;;;6.22;;
52458;SDS011;38372;52.902;6.024;2022-12-18T13:57:26;11.68;;;6.68;;
52458;SDS011;38372;52.902;6.024;2022-12-18T14:02:47;12.38;;;6.35;;
52458;SDS011;38372;52.902;6.024;2022-12-18T14:05:24;10.15;;;5.65;;
52458;SDS011;38372;52.902;6.024;2022-12-18T14:07:55;10.32;;;6.18;;
52458;SDS011;38372;52.902;6.024;2022-12-18T14:10:29;8.90;;;5.65;;
52458;SDS011;38372;52.902;6.024;2022-12-18T14:12:56;10.75;;;6.47;;
52458;SDS011;38372;52.902;6.024;2022-12-18T14:15:31;9.23;;;6.15;;
52458;SDS011;38372;52.902;6.024;2022-12-18T14:18:03;10.00;;;5.80;;
52458;SDS011;38372;52.902;6.024;2022-12-18T14:20:49;9.60;;;5.93;;
52458;SDS011;38372;52.902;6.024;2022-12-18T14:26:22;11.35;;;6.07;;
52458;SDS011;38372;52.902;6.024;2022-12-18T14:28:52;10.25;;;5.93;;
52458;SDS011;38372;52.902;6.024;2022-12-18T14:31:28;8.75;;;5.85;;
52458;SDS011;38372;52.902;6.024;2022-12-18T14:33:55;9.38;;;5.93;;
52458;SDS011;38372;52.902;6.024;2022-12-18T14:36:22;9.93;;;6.53;;
52458;SDS011;38372;52.902;6.024;2022-12-18T14:38:54;9.52;;;6.25;;
52458;SDS011;38372;52.902;6.024;2022-12-18T14:41:27;9.30;;;6.45;;
52458;SDS011;38372;52.902;6.024;2022-12-18T14:43:54;10.40;;;6.22;;
52458;SDS011;38372;52.902;6.024;2022-12-18T14:46:34;10.60;;;5.57;;
52458;SDS011;38372;52.902;6.024;2022-12-18T14:49:17;8.43;;;5.70;;
52458;SDS011;38372;52.902;6.024;2022-12-18T14:52:23;9.73;;;5.25;;
52458;SDS011;38372;52.902;6.024;2022-12-18T14:54:53;11.43;;;6.10;;
52458;SDS011;38372;52.902;6.024;2022-12-18T14:57:23;8.63;;;5.53;;
52458;SDS011;38372;52.902;6.024;2022-12-18T14:59:51;10.80;;;5.43;;
52458;SDS011;38372;52.902;6.024;2022-12-18T15:05:14;10.13;;;6.00;;
52458;SDS011;38372;52.902;6.024;2022-12-18T15:07:53;8.02;;;5.25;;
52458;SDS011;38372;52.902;6.024;2022-12-18T15:10:24;11.75;;;6.57;;
52458;SDS011;38372;52.902;6.024;2022-12-18T15:20:27;7.70;;;5.10;;
52458;SDS011;38372;52.902;6.024;2022-12-18T15:22:58;12.38;;;6.30;;
52458;SDS011;38372;52.902;6.024;2022-12-18T15:25:45;10.50;;;5.88;;
52458;SDS011;38372;52.902;6.024;2022-12-18T15:28:29;8.63;;;5.25;;
52458;SDS011;38372;52.902;6.024;2022-12-18T15:36:18;8.77;;;5.32;;
52458;SDS011;38372;52.902;6.024;2022-12-18T15:38:51;10.48;;;5.50;;
52458;SDS011;38372;52.902;6.024;2022-12-18T15:41:19;8.27;;;4.72;;
52458;SDS011;38372;52.902;6.024;2022-12-18T15:43:47;11.18;;;5.97;;
52458;SDS011;38372;52.902;6.024;2022-12-18T15:48:50;8.40;;;5.32;;
52458;SDS011;38372;52.902;6.024;2022-12-18T15:51:18;10.77;;;5.85;;
52458;SDS011;38372;52.902;6.024;2022-12-18T15:53:47;9.25;;;4.38;;
52458;SDS011;38372;52.902;6.024;2022-12-18T15:56:15;11.90;;;5.80;;
52458;SDS011;38372;52.902;6.024;2022-12-18T15:59:00;9.27;;;6.00;;
52458;SDS011;38372;52.902;6.024;2022-12-18T16:01:28;8.75;;;5.63;;
52458;SDS011;38372;52.902;6.024;2022-12-18T16:03:56;9.05;;;5.22;;
52458;SDS011;38372;52.902;6.024;2022-12-18T16:06:22;9.70;;;5.63;;
52458;SDS011;38372;52.902;6.024;2022-12-18T16:08:48;8.75;;;4.85;;
52458;SDS011;38372;52.902;6.024;2022-12-18T16:11:21;10.23;;;6.13;;
52458;SDS011;38372;52.902;6.024;2022-12-18T16:14:05;8.82;;;5.80;;
52458;SDS011;38372;52.902;6.024;2022-12-18T16:16:40;8.80;;;4.72;;
52458;SDS011;38372;52.902;6.024;2022-12-18T16:19:06;9.00;;;5.03;;
52458;SDS011;38372;52.902;6.024;2022-12-18T16:21:32;7.90;;;4.60;;
52458;SDS011;38372;52.902;6.024;2022-12-18T16:23:58;11.18;;;5.63;;
52458;SDS011;38372;52.902;6.024;2022-12-18T16:26:24;10.20;;;6.32;;
52458;SDS011;38372;52.902;6.024;2022-12-18T16:28:50;9.85;;;5.65;;
52458;SDS011;38372;52.902;6.024;2022-12-18T16:31:18;8.55;;;5.10;;
52458;SDS011;38372;52.902;6.024;2022-12-18T16:33:44;10.80;;;5.95;;
52458;SDS011;38372;52.902;6.024;2022-12-18T16:36:10;12.32;;;6.15;;
52458;SDS011;38372;52.902;6.024;2022-12-18T16:38:35;10.95;;;6.28;;
52458;SDS011;38372;52.902;6.024;2022-12-18T16:41:01;9.80;;;5.82;;
52458;SDS011;38372;52.902;6.024;2022-12-18T16:43:49;9.60;;;6.20;;
52458;SDS011;38372;52.902;6.024;2022-12-18T16:46:15;10.95;;;6.47;;
52458;SDS011;38372;52.902;6.024;2022-12-18T16:48:41;9.38;;;5.80;;
52458;SDS011;38372;52.902;6.024;2022-12-18T16:51:07;10.05;;;6.38;;
52458;SDS011;38372;52.902;6.024;2022-12-18T16:53:32;13.05;;;6.15;;
52458;SDS011;38372;52.902;6.024;2022-12-18T16:55:58;12.75;;;5.88;;
52458;SDS011;38372;52.902;6.024;2022-12-18T16:58:24;10.02;;;5.95;;
52458;SDS011;38372;52.902;6.024;2022-12-18T17:00:50;9.73;;;5.45;;
52458;SDS011;38372;52.902;6.024;2022-12-18T17:03:16;11.07;;;5.75;;
52458;SDS011;38372;52.902;6.024;2022-12-18T17:05:41;7.93;;;5.47;;
52458;SDS011;38372;52.902;6.024;2022-12-18T17:08:07;7.88;;;5.50;;
52458;SDS011;38372;52.902;6.024;2022-12-18T17:10:36;9.02;;;6.07;;
52458;SDS011;38372;52.902;6.024;2022-12-18T17:13:02;10.35;;;6.32;;